Time;durP1;ratioP1;P1;durP2;ratioP2;P2;SDS_P1;SDS_P2;PMS_P1;PMS_P2;Temp;Humidity;BMP_temperature;BMP_pressure;BME280_temperature;BME280_humidity;BME280_pressure;Samples;Min_cycle;Max_cycle;Signal;HPM_P1;HPM_P2
2022/05/07 17:56:20;;;;;;;6.82;3.45;;;;;;;;;;6708722;19;50735;-81
2022/05/07 17:58:46;;;;;;;9.15;3.50;;;;;;;;;;7346116;19;20011;-78
2022/05/07 18:01:11;;;;;;;10.77;3.83;;;;;;;;;;7372153;19;20006;-77
2022/05/07 18:03:36;;;;;;;6.00;3.20;;;;;;;;;;7356892;19;20612;-77
2022/05/07 18:06:01;;;;;;;7.80;3.13;;;;;;;;;;7374976;19;20019;-78
2022/05/07 18:08:27;;;;;;;5.82;2.95;;;;;;;;;;7371272;19;20014;-79
2022/05/07 18:10:54;;;;;;;6.20;3.33;;;;;;;;;;7371158;19;20047;-78
2022/05/07 18:13:20;;;;;;;7.45;3.20;;;;;;;;;;7372271;19;20085;-79
2022/05/07 18:15:45;;;;;;;7.90;3.13;;;;;;;;;;7374190;19;20355;-78
2022/05/07 18:18:11;;;;;;;8.57;3.40;;;;;;;;;;7372888;19;20018;-77
2022/05/07 18:20:36;;;;;;;7.03;2.90;;;;;;;;;;7375288;19;20070;-81
2022/05/07 18:23:01;;;;;;;5.40;2.78;;;;;;;;;;7363230;19;20510;-80
2022/05/07 18:25:27;;;;;;;7.27;3.07;;;;;;;;;;7358670;19;20097;-77
2022/05/07 18:27:52;;;;;;;8.57;3.20;;;;;;;;;;7369230;19;21131;-77
2022/05/07 18:30:17;;;;;;;8.98;3.40;;;;;;;;;;7365281;19;19998;-78
2022/05/07 18:32:44;;;;;;;9.35;3.50;;;;;;;;;;7357678;19;20096;-80
2022/05/07 18:35:10;;;;;;;9.43;4.78;;;;;;;;;;7377382;19;20010;-81
2022/05/07 18:43:03;;;;;;;10.63;5.97;;;;;;;;;;7364239;19;20467;-76
2022/05/07 18:45:28;;;;;;;14.67;6.80;;;;;;;;;;7367732;19;20014;-81
2022/05/07 18:47:53;;;;;;;14.93;6.15;;;;;;;;;;7366224;19;20251;-76
2022/05/07 18:50:19;;;;;;;10.57;5.70;;;;;;;;;;7373753;19;19994;-78
2022/05/07 18:52:45;;;;;;;15.85;7.80;;;;;;;;;;7371384;19;21083;-81
2022/05/07 19:00:41;;;;;;;;;;;;;;;;;;7362682;19;20021;-80
2022/05/07 19:03:06;;;;;;;11.82;5.63;;;;;;;;;;7365919;19;19930;-78
2022/05/07 19:05:31;;;;;;;14.73;7.07;;;;;;;;;;7365850;19;20331;-81
2022/05/07 19:07:57;;;;;;;22.80;9.03;;;;;;;;;;7365671;19;20243;-77
2022/05/07 19:10:23;;;;;;;16.10;8.32;;;;;;;;;;7375846;19;20251;-78
2022/05/07 19:12:50;;;;;;;17.27;7.40;;;;;;;;;;7374253;19;20022;-77
2022/05/07 19:15:16;;;;;;;17.52;8.65;;;;;;;;;;7378574;19;20497;-78
2022/05/07 19:17:42;;;;;;;16.25;8.40;;;;;;;;;;7364248;19;20010;-77
2022/05/07 19:20:08;;;;;;;15.38;8.77;;;;;;;;;;7374785;19;20789;-77
2022/05/07 19:22:33;;;;;;;17.63;8.32;;;;;;;;;;7370762;19;20316;-81
2022/05/07 19:24:58;;;;;;;17.63;9.03;;;;;;;;;;7380317;19;20017;-76
2022/05/07 19:27:26;;;;;;;18.80;9.33;;;;;;;;;;7370956;19;20987;-80
2022/05/07 19:29:51;;;;;;;14.75;8.23;;;;;;;;;;7368604;19;20367;-79
2022/05/07 19:32:17;;;;;;;24.20;10.73;;;;;;;;;;7336307;19;20014;-78
2022/05/07 19:34:42;;;;;;;19.15;9.85;;;;;;;;;;7381124;19;20319;-79
2022/05/07 19:37:07;;;;;;;18.27;9.07;;;;;;;;;;7367167;19;20405;-81
2022/05/07 19:39:32;;;;;;;16.80;8.00;;;;;;;;;;7365724;19;20002;-77
2022/05/07 19:41:58;;;;;;;19.17;9.85;;;;;;;;;;7374190;19;20011;-77
2022/05/07 19:44:23;;;;;;;14.60;9.48;;;;;;;;;;7374444;19;20923;-78
2022/05/07 19:46:48;;;;;;;18.43;10.73;;;;;;;;;;7365177;19;20003;-78
2022/05/07 19:49:13;;;;;;;17.63;11.13;;;;;;;;;;7374263;19;20243;-77
2022/05/07 19:51:39;;;;;;;19.92;10.40;;;;;;;;;;7366205;19;20101;-77
2022/05/07 19:54:04;;;;;;;23.20;10.25;;;;;;;;;;7370450;19;20026;-81
2022/05/07 19:56:29;;;;;;;16.58;10.02;;;;;;;;;;7366724;19;20002;-76
2022/05/07 19:58:54;;;;;;;18.10;10.33;;;;;;;;;;7372388;19;20072;-78
2022/05/07 20:01:20;;;;;;;18.05;10.95;;;;;;;;;;7360060;19;20010;-84
2022/05/07 20:03:45;;;;;;;21.92;12.10;;;;;;;;;;7368112;19;20034;-76
2022/05/07 20:06:12;;;;;;;22.13;11.05;;;;;;;;;;7373525;19;20406;-76
2022/05/07 20:08:37;;;;;;;26.15;11.93;;;;;;;;;;7368091;19;19995;-80
2022/05/07 20:11:03;;;;;;;25.57;13.37;;;;;;;;;;7371178;19;20010;-80
2022/05/07 20:13:28;;;;;;;24.58;12.20;;;;;;;;;;7375062;19;20491;-77
2022/05/07 20:15:53;;;;;;;19.17;11.40;;;;;;;;;;7367769;19;20301;-78
2022/05/07 20:18:18;;;;;;;19.98;11.48;;;;;;;;;;7367776;19;20679;-75
2022/05/07 20:23:29;;;;;;;19.23;11.13;;;;;;;;;;7374523;19;20271;-79
2022/05/07 20:25:54;;;;;;;19.73;10.73;;;;;;;;;;7373977;19;20041;-79
2022/05/07 20:28:19;;;;;;;19.60;11.97;;;;;;;;;;7369935;19;20019;-79
2022/05/07 20:30:44;;;;;;;20.47;11.43;;;;;;;;;;7368627;19;20006;-79
2022/05/07 20:33:10;;;;;;;23.85;12.23;;;;;;;;;;7360458;19;20610;-78
2022/05/07 20:35:35;;;;;;;19.95;11.70;;;;;;;;;;7343740;19;20021;-78
2022/05/07 20:38:04;;;;;;;21.80;12.85;;;;;;;;;;7370938;19;20022;-81
2022/05/07 20:40:29;;;;;;;21.60;12.48;;;;;;;;;;7348571;19;19999;-78
2022/05/07 20:42:55;;;;;;;23.83;12.77;;;;;;;;;;7361836;19;20696;-82
2022/05/07 20:48:04;;;;;;;23.83;12.88;;;;;;;;;;7370975;19;20029;-76
2022/05/07 20:50:31;;;;;;;22.42;13.25;;;;;;;;;;7382148;19;20070;-78
2022/05/07 20:53:00;;;;;;;26.38;13.18;;;;;;;;;;7377843;19;20025;-77
2022/05/07 20:55:25;;;;;;;22.75;12.63;;;;;;;;;;7375770;19;20086;-76
2022/05/07 20:57:50;;;;;;;23.05;13.57;;;;;;;;;;7380943;19;20051;-77
2022/05/07 21:00:16;;;;;;;23.15;14.10;;;;;;;;;;7376722;19;20015;-81
2022/05/07 21:02:41;;;;;;;26.92;14.02;;;;;;;;;;7368173;19;20007;-79
2022/05/07 21:05:06;;;;;;;25.03;13.53;;;;;;;;;;7370207;19;20536;-76
2022/05/07 21:07:31;;;;;;;21.63;14.05;;;;;;;;;;7378445;19;20653;-77
2022/05/07 21:09:56;;;;;;;22.00;13.97;;;;;;;;;;7379241;19;20379;-76
2022/05/07 21:12:22;;;;;;;25.90;14.33;;;;;;;;;;7381294;19;20166;-77
2022/05/07 21:14:47;;;;;;;27.63;14.30;;;;;;;;;;7378813;19;20259;-77
2022/05/07 21:17:12;;;;;;;24.75;15.30;;;;;;;;;;7378878;19;20066;-80
2022/05/07 21:19:38;;;;;;;26.55;15.07;;;;;;;;;;7380450;19;20018;-77
2022/05/07 21:22:04;;;;;;;30.13;16.40;;;;;;;;;;7380300;19;20017;-77
2022/05/07 21:27:14;;;;;;;27.63;15.52;;;;;;;;;;7376385;19;20013;-77
2022/05/07 21:29:39;;;;;;;29.27;15.32;;;;;;;;;;7372013;19;20522;-76
2022/05/07 21:32:05;;;;;;;24.30;15.63;;;;;;;;;;7373892;19;20023;-78
2022/05/07 21:34:30;;;;;;;28.70;18.13;;;;;;;;;;7371103;19;19999;-80
2022/05/07 21:36:56;;;;;;;30.58;17.60;;;;;;;;;;7379339;19;20029;-75
2022/05/07 21:39:22;;;;;;;29.05;18.48;;;;;;;;;;7348124;19;20020;-80
2022/05/07 21:41:47;;;;;;;32.50;18.77;;;;;;;;;;7357652;19;20011;-76
2022/05/07 21:44:12;;;;;;;32.00;18.50;;;;;;;;;;7337594;19;20243;-75
2022/05/07 21:46:38;;;;;;;29.23;17.77;;;;;;;;;;7361956;19;20239;-81
2022/05/07 21:49:03;;;;;;;33.90;19.20;;;;;;;;;;7369777;19;20561;-76
2022/05/07 21:53:58;;;;;;;27.55;16.98;;;;;;;;;;7370691;19;20003;-78
2022/05/07 21:56:26;;;;;;;32.67;18.52;;;;;;;;;;7364277;19;20429;-77
2022/05/07 21:58:51;;;;;;;25.60;15.88;;;;;;;;;;7371466;19;20023;-76
2022/05/07 22:01:16;;;;;;;26.83;17.35;;;;;;;;;;7345023;19;20019;-74
2022/05/07 22:03:42;;;;;;;29.40;17.88;;;;;;;;;;7325573;19;20006;-75
2022/05/07 22:06:08;;;;;;;32.42;19.30;;;;;;;;;;7360012;19;20002;-74
2022/05/07 22:08:33;;;;;;;32.58;19.35;;;;;;;;;;7366478;19;20642;-75
2022/05/07 22:10:58;;;;;;;34.95;20.35;;;;;;;;;;7364260;19;20002;-74
2022/05/07 22:13:23;;;;;;;29.58;19.13;;;;;;;;;;7366085;19;20011;-74
2022/05/07 22:15:49;;;;;;;31.53;20.00;;;;;;;;;;7368039;19;20011;-75
2022/05/07 22:18:14;;;;;;;30.17;19.15;;;;;;;;;;7362683;19;20247;-74
2022/05/07 22:20:40;;;;;;;32.97;19.77;;;;;;;;;;7368118;19;20007;-75
2022/05/07 22:23:06;;;;;;;30.92;18.30;;;;;;;;;;7372192;19;20017;-75
2022/05/07 22:25:31;;;;;;;33.42;20.75;;;;;;;;;;7373666;19;20069;-74
2022/05/07 22:27:56;;;;;;;34.60;18.73;;;;;;;;;;7376372;19;20082;-75
2022/05/07 22:30:22;;;;;;;28.60;17.20;;;;;;;;;;7375601;19;20010;-74
2022/05/07 22:32:47;;;;;;;31.23;18.48;;;;;;;;;;7374744;19;20023;-74
2022/05/07 22:35:12;;;;;;;32.90;20.53;;;;;;;;;;7376977;19;19991;-75
2022/05/07 22:37:37;;;;;;;29.80;19.33;;;;;;;;;;7376921;19;20254;-73
2022/05/07 22:40:04;;;;;;;32.13;19.80;;;;;;;;;;7379551;19;19998;-73
2022/05/07 22:42:29;;;;;;;33.15;20.50;;;;;;;;;;7375283;19;20029;-73
2022/05/07 22:44:54;;;;;;;34.37;21.47;;;;;;;;;;7375416;19;20074;-73
2022/05/07 22:47:19;;;;;;;39.43;22.27;;;;;;;;;;7375552;19;20246;-73
2022/05/07 22:49:44;;;;;;;36.40;21.37;;;;;;;;;;7379054;19;20258;-74
2022/05/07 22:52:09;;;;;;;37.53;22.33;;;;;;;;;;7377972;19;20591;-74
2022/05/07 22:54:35;;;;;;;35.70;20.33;;;;;;;;;;7373201;19;20075;-73
2022/05/07 22:57:00;;;;;;;33.57;21.80;;;;;;;;;;7375438;19;20011;-73
2022/05/07 22:59:25;;;;;;;32.33;21.17;;;;;;;;;;7377674;19;20237;-73
2022/05/07 23:01:50;;;;;;;37.72;22.52;;;;;;;;;;7374006;19;20018;-75
2022/05/07 23:04:16;;;;;;;29.50;19.17;;;;;;;;;;7374782;19;20010;-75
2022/05/07 23:06:41;;;;;;;32.72;19.52;;;;;;;;;;7372154;19;20252;-73
2022/05/07 23:09:06;;;;;;;31.55;19.48;;;;;;;;;;7372927;19;20026;-74
2022/05/07 23:11:31;;;;;;;30.20;19.65;;;;;;;;;;7356926;19;20526;-72
2022/05/07 23:13:56;;;;;;;33.30;21.60;;;;;;;;;;7370743;19;20345;-73
2022/05/07 23:16:22;;;;;;;36.72;20.92;;;;;;;;;;7373635;19;20458;-73
2022/05/07 23:18:47;;;;;;;29.90;18.93;;;;;;;;;;7366894;19;20090;-74
2022/05/07 23:21:12;;;;;;;30.02;18.27;;;;;;;;;;7366844;19;20268;-75
2022/05/07 23:23:37;;;;;;;30.88;20.45;;;;;;;;;;7370104;19;20430;-75
2022/05/07 23:26:03;;;;;;;36.13;22.35;;;;;;;;;;7376990;19;20343;-75
2022/05/07 23:28:28;;;;;;;32.53;20.92;;;;;;;;;;7376282;19;20006;-75
2022/05/07 23:30:53;;;;;;;33.38;22.90;;;;;;;;;;7374943;19;20002;-74
2022/05/07 23:33:18;;;;;;;33.38;21.40;;;;;;;;;;7367405;19;20014;-75
2022/05/07 23:35:44;;;;;;;39.57;21.83;;;;;;;;;;7377364;19;19999;-75
2022/05/07 23:38:09;;;;;;;38.58;24.67;;;;;;;;;;7367602;19;20258;-75
2022/05/07 23:40:34;;;;;;;32.93;20.67;;;;;;;;;;7373338;19;20003;-75
2022/05/07 23:43:00;;;;;;;32.53;19.70;;;;;;;;;;7370053;19;20296;-75
2022/05/07 23:45:25;;;;;;;30.13;19.58;;;;;;;;;;7372630;19;20339;-75
2022/05/07 23:47:50;;;;;;;26.17;17.93;;;;;;;;;;7371912;19;20016;-75
2022/05/07 23:50:15;;;;;;;34.45;20.40;;;;;;;;;;7368880;19;20243;-74
2022/05/07 23:52:40;;;;;;;27.95;17.30;;;;;;;;;;7375641;19;20015;-74
2022/05/07 23:55:06;;;;;;;27.50;17.23;;;;;;;;;;7372006;19;20774;-75
2022/05/07 23:57:31;;;;;;;30.38;18.13;;;;;;;;;;7377551;19;20007;-75
2022/05/07 23:59:56;;;;;;;37.95;19.80;;;;;;;;;;7371831;19;20416;-75
